Time;durP1;ratioP1;P1;durP2;ratioP2;P2;SDS_P1;SDS_P2;PMS_P1;PMS_P2;Temp;Humidity;BMP_temperature;BMP_pressure;BME280_temperature;BME280_humidity;BME280_pressure;Samples;Min_cycle;Max_cycle;Signal;HPM_P1;HPM_P2
2023/09/29 00:02:24;;;;;;;7.85;2.20;;;19.30;60.30;;;;;;6271649;28;20412;-78
2023/09/29 00:05:26;;;;;;;14.55;2.35;;;19.30;60.30;;;;;;6295438;28;20054;-78
2023/09/29 00:08:28;;;;;;;7.70;2.22;;;19.30;60.30;;;;;;6271643;28;20057;-78
2023/09/29 00:11:31;;;;;;;7.55;2.00;;;19.30;60.30;;;;;;6295237;28;20516;-78
2023/09/29 00:14:33;;;;;;;7.65;1.75;;;19.30;60.30;;;;;;6267260;28;20060;-79
2023/09/29 00:17:35;;;;;;;9.15;2.58;;;19.30;60.30;;;;;;6294773;28;20053;-77
2023/09/29 00:20:36;;;;;;;7.60;2.10;;;19.20;60.20;;;;;;6271103;28;20095;-78
2023/09/29 00:23:38;;;;;;;6.47;2.20;;;19.20;60.70;;;;;;6287816;28;20079;-78
2023/09/29 00:26:40;;;;;;;10.32;2.00;;;19.20;60.80;;;;;;6270795;28;20064;-77
2023/09/29 00:29:42;;;;;;;13.95;1.98;;;19.20;61.30;;;;;;6291434;28;20055;-79
2023/09/29 00:32:44;;;;;;;6.15;1.73;;;19.30;61.20;;;;;;6270858;28;20599;-76
2023/09/29 00:35:47;;;;;;;6.53;1.70;;;19.30;61.50;;;;;;6294675;28;20155;-77
2023/09/29 00:38:49;;;;;;;10.73;2.08;;;19.30;62.00;;;;;;6270607;28;20071;-76
2023/09/29 00:41:51;;;;;;;8.07;2.08;;;19.20;63.70;;;;;;6294543;28;20162;-76
2023/09/29 00:44:52;;;;;;;11.02;2.05;;;19.10;66.70;;;;;;6267039;28;20393;-77
2023/09/29 00:47:57;;;;;;;10.68;2.10;;;18.90;69.00;;;;;;6294108;28;20519;-78
2023/09/29 00:51:00;;;;;;;8.30;2.00;;;18.90;69.80;;;;;;6270088;28;20540;-78
2023/09/29 00:54:02;;;;;;;7.60;1.83;;;18.80;70.70;;;;;;6292227;28;20061;-77
2023/09/29 00:57:05;;;;;;;10.45;1.85;;;18.80;72.60;;;;;;6295096;28;20059;-78
2023/09/29 01:00:14;;;;;;;7.22;1.95;;;18.70;72.80;;;;;;6262872;28;20057;-77
2023/09/29 01:03:15;;;;;;;5.18;1.75;;;18.70;73.70;;;;;;6245522;28;20698;-77
2023/09/29 01:06:17;;;;;;;9.68;1.95;;;18.70;74.40;;;;;;6293021;28;20049;-77
2023/09/29 01:09:19;;;;;;;7.13;2.05;;;18.70;75.00;;;;;;6270154;28;20063;-77
2023/09/29 01:12:21;;;;;;;7.10;2.33;;;18.70;75.00;;;;;;6292193;28;20049;-77
2023/09/29 01:15:22;;;;;;;7.60;2.28;;;18.80;74.70;;;;;;6264765;28;20056;-77
2023/09/29 01:18:24;;;;;;;7.07;1.80;;;18.80;75.30;;;;;;6244871;28;20057;-75
2023/09/29 01:21:28;;;;;;;9.57;1.90;;;18.80;75.70;;;;;;6292955;28;20044;-77
2023/09/29 01:24:29;;;;;;;6.97;1.80;;;18.80;75.20;;;;;;6283055;28;20424;-76
2023/09/29 01:27:31;;;;;;;5.50;2.15;;;18.90;75.00;;;;;;6271468;28;20440;-79
2023/09/29 01:30:33;;;;;;;10.18;2.13;;;18.90;74.10;;;;;;6292431;28;20048;-77
2023/09/29 01:33:39;;;;;;;5.95;1.50;;;19.00;74.40;;;;;;6245011;28;20049;-76
2023/09/29 01:36:40;;;;;;;7.18;1.85;;;19.00;73.30;;;;;;6244747;28;20057;-77
2023/09/29 01:39:42;;;;;;;9.55;1.98;;;19.10;72.90;;;;;;6292937;28;20053;-76
2023/09/29 01:42:56;;;;;;;6.10;1.52;;;19.10;72.80;;;;;;6268021;28;20155;-77
2023/09/29 01:46:00;;;;;;;6.03;1.80;;;19.20;72.70;;;;;;6293407;28;20045;-79
2023/09/29 01:49:02;;;;;;;7.47;1.90;;;19.20;72.10;;;;;;6268948;28;20500;-79
2023/09/29 01:52:03;;;;;;;10.73;2.40;;;19.20;71.90;;;;;;6292837;28;20052;-78
2023/09/29 01:55:16;;;;;;;8.93;1.92;;;19.20;71.60;;;;;;6267180;28;20053;-77
2023/09/29 01:58:17;;;;;;;5.63;1.70;;;19.20;71.00;;;;;;6255487;28;20049;-78
2023/09/29 02:01:19;;;;;;;9.55;1.88;;;19.20;70.70;;;;;;6266765;28;20048;-77
2023/09/29 02:04:21;;;;;;;7.07;2.20;;;19.30;70.20;;;;;;6292596;28;20052;-76
2023/09/29 02:07:24;;;;;;;7.30;1.55;;;19.20;70.20;;;;;;6267589;28;20056;-76
2023/09/29 02:10:26;;;;;;;6.28;1.85;;;19.20;71.30;;;;;;6293128;28;20439;-76
2023/09/29 02:13:28;;;;;;;6.53;1.88;;;19.20;72.20;;;;;;6271081;28;20063;-77
2023/09/29 02:16:29;;;;;;;10.70;2.20;;;19.10;73.10;;;;;;6269036;28;20078;-77
2023/09/29 02:19:31;;;;;;;7.93;2.05;;;19.00;73.80;;;;;;6292929;28;20112;-76
2023/09/29 02:22:33;;;;;;;5.53;1.60;;;19.00;74.60;;;;;;6267307;28;20055;-76
2023/09/29 02:25:34;;;;;;;7.45;1.60;;;19.00;75.30;;;;;;6292706;28;20079;-77
2023/09/29 02:28:36;;;;;;;4.10;1.42;;;19.00;75.40;;;;;;6279587;28;20048;-76
2023/09/29 02:31:38;;;;;;;9.80;1.70;;;18.90;76.40;;;;;;6268702;28;20515;-76
2023/09/29 02:34:39;;;;;;;6.03;1.88;;;18.90;76.40;;;;;;6292459;28;20834;-76
2023/09/29 02:37:41;;;;;;;3.03;1.25;;;18.90;76.60;;;;;;6268743;28;20075;-76
2023/09/29 02:40:43;;;;;;;4.18;1.20;;;18.90;76.50;;;;;;6292580;28;20062;-76
2023/09/29 02:43:44;;;;;;;4.07;1.05;;;18.90;76.10;;;;;;6266228;22;20050;-75
2023/09/29 02:46:46;;;;;;;4.22;1.30;;;19.00;75.80;;;;;;6293252;23;20050;-75
2023/09/29 02:49:47;;;;;;;5.13;1.10;;;19.00;75.20;;;;;;6218082;28;20057;-75
2023/09/29 02:52:49;;;;;;;5.50;1.38;;;19.10;74.60;;;;;;6194742;28;20046;-76
2023/09/29 02:55:51;;;;;;;7.57;1.45;;;19.10;74.70;;;;;;6233213;28;20239;-75
2023/09/29 02:58:54;;;;;;;5.20;1.42;;;19.20;74.60;;;;;;6208270;28;20503;-76
2023/09/29 03:01:57;;;;;;;8.60;1.65;;;19.20;74.40;;;;;;6194624;28;20080;-75
2023/09/29 03:05:02;;;;;;;4.43;1.40;;;19.20;74.80;;;;;;6218135;28;20075;-76
2023/09/29 03:08:03;;;;;;;4.60;1.50;;;19.20;75.30;;;;;;6195070;28;20050;-75
2023/09/29 03:11:05;;;;;;;4.82;1.63;;;19.10;75.60;;;;;;6217766;28;20452;-76
2023/09/29 03:14:07;;;;;;;6.40;1.90;;;19.00;76.60;;;;;;6187280;28;20050;-76
2023/09/29 03:17:09;;;;;;;4.70;1.38;;;19.00;78.00;;;;;;6217913;28;20046;-76
2023/09/29 03:23:48;;;;;;;4.22;1.20;;;18.90;78.50;;;;;;6170089;28;20043;-76
2023/09/29 03:26:50;;;;;;;2.83;1.10;;;18.80;79.10;;;;;;6217336;28;20057;-75
2023/09/29 03:29:52;;;;;;;2.20;0.90;;;18.80;79.30;;;;;;6195661;28;20417;-75
2023/09/29 03:32:57;;;;;;;2.45;1.10;;;18.80;79.30;;;;;;6222250;28;20188;-75
2023/09/29 03:35:59;;;;;;;2.33;0.93;;;18.90;79.10;;;;;;6198518;28;20417;-75
2023/09/29 03:39:02;;;;;;;2.95;0.93;;;18.90;78.90;;;;;;6222228;28;20524;-75
2023/09/29 03:42:04;;;;;;;2.67;1.33;;;18.90;79.60;;;;;;6198238;28;20421;-76
2023/09/29 03:45:08;;;;;;;1.23;0.60;;;18.80;80.10;;;;;;6181976;28;20058;-76
2023/09/29 03:48:10;;;;;;;1.25;0.50;;;18.60;75.80;;;;;;6222505;28;20100;-76
2023/09/29 03:51:11;;;;;;;0.85;0.40;;;18.10;74.50;;;;;;6198223;28;20053;-77
2023/09/29 03:54:13;;;;;;;1.10;0.50;;;17.80;76.00;;;;;;6221315;28;20061;-77
2023/09/29 03:57:15;;;;;;;1.02;0.40;;;17.70;77.60;;;;;;6198540;28;20489;-76
2023/09/29 04:00:18;;;;;;;2.17;0.50;;;17.60;78.00;;;;;;6217955;28;20065;-76
2023/09/29 04:03:20;;;;;;;0.93;0.40;;;17.50;78.60;;;;;;6197893;28;20054;-77
2023/09/29 04:06:23;;;;;;;0.60;0.40;;;17.40;79.20;;;;;;6221263;28;20061;-76
2023/09/29 04:13:03;;;;;;;0.73;0.40;;;17.30;78.70;;;;;;6200259;28;20418;-77
2023/09/29 04:19:43;;;;;;;0.82;0.38;;;17.30;79.40;;;;;;6221562;28;20475;-78
2023/09/29 04:22:45;;;;;;;1.75;0.50;;;17.30;79.20;;;;;;6173214;28;20082;-78
2023/09/29 04:25:47;;;;;;;1.00;0.30;;;17.30;82.30;;;;;;6220483;28;20058;-77
2023/09/29 04:28:50;;;;;;;1.05;0.50;;;17.00;79.40;;;;;;6208789;28;20046;-77
2023/09/29 04:31:53;;;;;;;1.23;0.50;;;17.20;79.80;;;;;;6197198;28;20062;-76
2023/09/29 04:45:49;;;;;;;1.42;0.50;;;17.00;79.70;;;;;;6191714;28;20128;-77
2023/09/29 04:48:53;;;;;;;1.15;0.50;;;17.00;79.90;;;;;;6197044;28;20061;-77
2023/09/29 04:51:55;;;;;;;1.40;0.55;;;16.90;79.40;;;;;;6235642;28;20081;-77
2023/09/29 04:54:57;;;;;;;1.10;0.50;;;16.90;79.00;;;;;;6196515;28;20429;-78
2023/09/29 04:57:59;;;;;;;1.52;0.60;;;16.90;79.20;;;;;;6211869;28;20057;-77
2023/09/29 05:01:01;;;;;;;2.05;0.70;;;16.90;79.00;;;;;;6196677;28;20054;-76
2023/09/29 05:04:03;;;;;;;1.42;0.68;;;16.90;79.20;;;;;;6220211;28;20096;-76
2023/09/29 05:07:05;;;;;;;2.95;0.52;;;16.90;79.10;;;;;;6199233;28;20148;-76
2023/09/29 05:10:07;;;;;;;2.13;0.68;;;16.90;78.90;;;;;;6219432;28;20552;-76
2023/09/29 05:13:09;;;;;;;2.15;0.80;;;16.90;78.40;;;;;;6203470;28;20421;-77
2023/09/29 05:16:10;;;;;;;3.22;0.77;;;16.80;78.30;;;;;;6220636;28;20057;-76
2023/09/29 05:19:12;;;;;;;2.10;0.75;;;16.80;77.80;;;;;;6196308;28;20461;-76
2023/09/29 05:22:14;;;;;;;2.47;0.90;;;16.80;77.60;;;;;;6219663;28;20425;-77
2023/09/29 05:25:15;;;;;;;5.80;0.88;;;16.80;77.10;;;;;;6196243;28;20527;-76
2023/09/29 05:28:17;;;;;;;2.33;0.90;;;16.80;78.10;;;;;;6207809;28;20058;-77
2023/09/29 05:31:18;;;;;;;2.92;0.88;;;16.80;78.10;;;;;;6219959;28;20080;-78
2023/09/29 05:34:20;;;;;;;1.80;0.75;;;16.90;77.90;;;;;;6195781;28;20054;-77
2023/09/29 05:37:22;;;;;;;2.45;0.80;;;16.80;78.00;;;;;;6219258;28;20521;-77
2023/09/29 05:40:23;;;;;;;2.05;0.80;;;16.90;78.40;;;;;;6196647;28;20085;-76
2023/09/29 05:43:26;;;;;;;2.28;1.38;;;16.80;78.50;;;;;;6205858;28;20058;-76
2023/09/29 05:46:28;;;;;;;2.88;0.90;;;16.90;78.90;;;;;;6205057;28;20066;-76
2023/09/29 05:49:30;;;;;;;1.92;0.90;;;16.90;79.10;;;;;;6234245;28;20045;-75
2023/09/29 05:52:32;;;;;;;2.33;0.80;;;16.80;78.50;;;;;;6195531;28;20057;-76
2023/09/29 05:55:35;;;;;;;2.90;0.70;;;16.80;78.60;;;;;;6219095;28;20062;-76
2023/09/29 05:58:37;;;;;;;1.85;0.80;;;16.80;78.70;;;;;;6206125;28;20573;-77
2023/09/29 06:01:39;;;;;;;2.15;0.82;;;16.90;78.50;;;;;;6195471;28;20074;-77
2023/09/29 06:04:40;;;;;;;3.03;1.05;;;16.80;77.70;;;;;;6218689;28;20053;-77
2023/09/29 06:07:42;;;;;;;3.53;1.00;;;16.80;77.70;;;;;;6192490;28;20108;-77
2023/09/29 06:10:44;;;;;;;3.38;1.00;;;16.90;77.60;;;;;;6219046;28;20054;-77
2023/09/29 06:13:45;;;;;;;3.25;1.30;;;16.90;77.20;;;;;;6205622;28;20053;-77
2023/09/29 06:16:47;;;;;;;4.68;1.05;;;16.80;77.50;;;;;;6193943;28;20429;-77
2023/09/29 06:19:49;;;;;;;3.03;1.00;;;16.80;77.00;;;;;;6218306;28;20872;-78
2023/09/29 06:22:51;;;;;;;4.13;0.93;;;16.80;76.30;;;;;;6195277;28;20062;-77
2023/09/29 06:25:52;;;;;;;5.18;1.50;;;16.80;77.00;;;;;;6218200;28;20057;-77
2023/09/29 06:28:54;;;;;;;1.95;0.80;;;16.80;75.60;;;;;;6208041;28;20057;-78
2023/09/29 06:31:56;;;;;;;2.60;0.93;;;16.70;73.30;;;;;;6194976;28;20050;-77
2023/09/29 06:34:58;;;;;;;2.40;1.05;;;16.70;72.40;;;;;;6218084;28;20059;-78
2023/09/29 06:38:00;;;;;;;3.08;0.90;;;16.70;70.10;;;;;;6195082;28;20062;-78
2023/09/29 06:41:01;;;;;;;4.07;1.20;;;16.80;71.50;;;;;;6218474;28;20058;-78
2023/09/29 06:44:03;;;;;;;3.00;1.00;;;16.70;68.10;;;;;;6207498;28;20057;-77
2023/09/29 06:47:04;;;;;;;3.10;1.30;;;16.70;67.10;;;;;;6194641;28;20062;-77
2023/09/29 06:50:10;;;;;;;3.40;1.30;;;16.60;66.40;;;;;;6217933;28;20054;-77
2023/09/29 06:53:12;;;;;;;4.78;1.75;;;16.60;66.50;;;;;;6170837;28;20059;-78
2023/09/29 06:56:14;;;;;;;2.75;1.00;;;16.60;65.30;;;;;;6218054;28;20053;-77
2023/09/29 06:59:15;;;;;;;3.53;1.10;;;16.60;67.30;;;;;;6193703;28;20058;-77
2023/09/29 07:02:17;;;;;;;5.55;1.05;;;16.70;67.90;;;;;;6218120;28;20057;-78
2023/09/29 07:05:19;;;;;;;3.25;1.00;;;17.10;65.70;;;;;;6198964;28;20457;-77
2023/09/29 07:08:20;;;;;;;3.58;0.90;;;17.30;63.90;;;;;;6206126;28;20062;-77
2023/09/29 07:11:22;;;;;;;3.10;0.90;;;17.10;60.80;;;;;;6222761;28;20057;-78
2023/09/29 07:14:23;;;;;;;4.05;0.85;;;17.10;62.20;;;;;;6192627;28;20105;-77
2023/09/29 07:17:25;;;;;;;3.40;1.00;;;17.20;60.70;;;;;;6222124;28;20046;-78
2023/09/29 07:20:27;;;;;;;3.08;0.90;;;17.20;60.60;;;;;;6198662;28;20501;-78
2023/09/29 07:23:30;;;;;;;2.08;0.80;;;17.30;71.60;;;;;;6221986;28;20053;-77
2023/09/29 07:26:31;;;;;;;2.78;0.90;;;17.50;68.20;;;;;;6197141;28;20051;-77
2023/09/29 07:29:33;;;;;;;2.90;0.98;;;17.60;58.60;;;;;;6220328;28;20119;-79
2023/09/29 07:32:36;;;;;;;2.55;0.90;;;18.00;56.80;;;;;;6198160;28;20054;-78
2023/09/29 07:35:38;;;;;;;1.85;0.80;;;17.80;53.50;;;;;;6221144;28;20156;-77
2023/09/29 07:38:39;;;;;;;4.82;0.90;;;17.70;52.70;;;;;;6198438;28;20058;-77
2023/09/29 07:41:41;;;;;;;2.08;0.75;;;17.60;54.40;;;;;;6221819;28;20524;-77
2023/09/29 07:44:46;;;;;;;4.53;1.08;;;17.50;53.90;;;;;;6194885;28;20074;-76
2023/09/29 07:47:48;;;;;;;3.10;0.90;;;17.40;56.80;;;;;;6172770;28;20080;-75
2023/09/29 07:50:50;;;;;;;4.82;1.13;;;17.50;55.30;;;;;;6235032;28;20054;-75
2023/09/29 07:53:52;;;;;;;3.90;0.75;;;17.40;49.40;;;;;;6198718;28;20521;-75
2023/09/29 07:56:53;;;;;;;4.53;0.73;;;17.30;49.60;;;;;;6221209;28;20053;-75
2023/09/29 07:59:55;;;;;;;1.80;0.70;;;17.20;49.80;;;;;;6194228;28;20050;-76
2023/09/29 08:02:57;;;;;;;2.65;0.90;;;17.10;49.90;;;;;;6221351;28;20127;-75
2023/09/29 08:05:59;;;;;;;2.25;0.80;;;17.10;50.10;;;;;;6197650;28;20093;-75
2023/09/29 08:09:01;;;;;;;2.67;0.77;;;16.90;48.40;;;;;;6199480;28;20057;-76
2023/09/29 08:12:02;;;;;;;4.35;0.82;;;17.00;46.90;;;;;;6216094;28;20053;-76
2023/09/29 08:15:05;;;;;;;3.28;0.80;;;17.00;51.20;;;;;;6191153;28;20054;-76
2023/09/29 08:18:08;;;;;;;2.65;0.95;;;17.10;51.20;;;;;;6220489;28;20492;-76
2023/09/29 08:21:09;;;;;;;6.07;0.90;;;17.10;48.30;;;;;;6197092;28;20065;-76
2023/09/29 08:24:11;;;;;;;3.30;1.00;;;17.20;46.30;;;;;;6219987;28;20426;-75
2023/09/29 08:27:13;;;;;;;2.58;0.90;;;17.30;49.80;;;;;;6197060;28;20501;-76
2023/09/29 08:30:15;;;;;;;4.20;1.05;;;17.40;49.30;;;;;;6188914;28;20085;-79
2023/09/29 08:33:16;;;;;;;2.40;0.80;;;17.50;45.90;;;;;;6184818;28;20573;-76
2023/09/29 08:36:33;;;;;;;5.28;0.88;;;17.80;49.60;;;;;;6172288;28;20082;-75
2023/09/29 08:39:34;;;;;;;1.70;0.70;;;18.00;38.50;;;;;;6207559;28;20046;-75
2023/09/29 08:42:36;;;;;;;2.10;0.80;;;18.00;43.70;;;;;;6216192;28;20061;-80
2023/09/29 08:45:40;;;;;;;3.28;0.93;;;18.10;38.00;;;;;;6219052;28;20141;-77
2023/09/29 08:48:42;;;;;;;3.75;0.77;;;18.10;41.80;;;;;;6220256;28;20057;-76
2023/09/29 08:51:46;;;;;;;3.47;0.82;;;18.10;40.90;;;;;;6196307;28;20167;-80
2023/09/29 08:54:48;;;;;;;2.67;0.80;;;18.10;37.00;;;;;;6220122;28;20053;-77
2023/09/29 08:57:50;;;;;;;4.57;0.90;;;18.60;19.60;;;;;;6195011;28;20049;-77
2023/09/29 09:00:53;;;;;;;3.90;0.88;;;18.90;24.00;;;;;;6220402;28;20058;-74
2023/09/29 09:03:54;;;;;;;3.50;1.17;;;19.10;30.80;;;;;;6194541;28;20070;-77
2023/09/29 09:06:57;;;;;;;3.13;0.90;;;19.50;17.90;;;;;;6194919;28;20106;-77
2023/09/29 09:09:59;;;;;;;3.28;0.90;;;19.60;23.10;;;;;;6219693;28;20505;-76
2023/09/29 09:13:01;;;;;;;3.85;1.13;;;;;;;;;;6211786;28;20058;-77
2023/09/29 09:16:03;;;;;;;4.32;1.05;;;19.00;14.80;;;;;;6196262;28;20058;-77
2023/09/29 09:19:05;;;;;;;3.10;1.00;;;;;;;;;;6219371;28;20058;-76
2023/09/29 09:22:07;;;;;;;3.80;1.20;;;20.10;1.00;;;;;;6196032;28;20128;-76
2023/09/29 09:25:11;;;;;;;3.92;1.10;;;19.90;7.40;;;;;;6219264;28;20050;-76
2023/09/29 09:28:14;;;;;;;2.80;1.00;;;20.60;6.50;;;;;;6195446;28;20503;-76
2023/09/29 09:31:15;;;;;;;4.63;1.20;;;21.40;5.10;;;;;;6195891;28;20050;-77
2023/09/29 09:34:17;;;;;;;4.90;1.10;;;22.10;1.00;;;;;;6219041;28;20091;-77
2023/09/29 09:37:19;;;;;;;3.30;1.27;;;22.80;1.00;;;;;;6195853;28;20057;-74
2023/09/29 09:40:20;;;;;;;5.40;1.15;;;22.20;1.00;;;;;;6219310;28;20054;-78
2023/09/29 09:43:22;;;;;;;3.00;1.10;;;21.90;1.00;;;;;;6201112;28;20069;-76
2023/09/29 09:46:24;;;;;;;3.47;1.20;;;21.50;1.00;;;;;;6208955;28;20072;-78
2023/09/29 09:49:29;;;;;;;5.15;1.38;;;22.00;1.00;;;;;;6195325;28;20403;-77
2023/09/29 09:52:31;;;;;;;2.38;0.88;;;22.30;1.00;;;;;;6219517;28;20579;-81
2023/09/29 09:55:33;;;;;;;3.40;1.27;;;22.20;1.00;;;;;;6195468;28;20653;-77
2023/09/29 09:58:35;;;;;;;3.30;1.30;;;22.50;1.00;;;;;;6201649;28;20417;-78
2023/09/29 10:01:37;;;;;;;3.90;1.23;;;22.40;1.00;;;;;;6218772;28;20054;-80
2023/09/29 10:04:39;;;;;;;4.80;1.55;;;23.10;1.00;;;;;;6200114;28;20513;-75
2023/09/29 10:07:42;;;;;;;3.83;1.15;;;;;;;;;;6220320;28;20680;-79
2023/09/29 10:10:44;;;;;;;5.57;1.30;;;24.70;1.00;;;;;;6220193;28;20104;-76
2023/09/29 10:13:47;;;;;;;4.63;1.40;;;24.70;1.00;;;;;;6195577;28;20140;-77
2023/09/29 10:16:51;;;;;;;4.55;1.70;;;25.10;1.00;;;;;;6199072;28;20061;-79
2023/09/29 10:19:54;;;;;;;4.55;1.52;;;25.50;1.00;;;;;;6236784;28;20056;-78
2023/09/29 10:22:56;;;;;;;4.22;1.38;;;25.50;1.00;;;;;;6210999;28;20085;-79
2023/09/29 10:25:58;;;;;;;5.00;1.70;;;25.50;1.00;;;;;;6233717;28;20452;-77
2023/09/29 10:29:00;;;;;;;4.63;1.45;;;25.50;1.00;;;;;;6205707;28;20057;-79
2023/09/29 10:32:02;;;;;;;4.13;1.42;;;25.30;1.00;;;;;;6195013;28;20720;-78
2023/09/29 10:35:05;;;;;;;5.15;1.73;;;25.00;1.00;;;;;;6217972;28;20096;-77
2023/09/29 10:38:12;;;;;;;4.40;1.52;;;24.90;1.00;;;;;;6197381;28;20065;-80
2023/09/29 10:41:15;;;;;;;5.15;1.80;;;25.10;1.00;;;;;;6175743;28;20051;-79
2023/09/29 10:44:35;;;;;;;4.85;1.77;;;24.70;1.00;;;;;;6173589;28;20046;-78
2023/09/29 10:47:37;;;;;;;4.63;1.73;;;24.90;1.00;;;;;;6222995;28;20532;-76
2023/09/29 10:50:38;;;;;;;5.28;1.55;;;24.90;1.00;;;;;;6200008;28;20054;-82
2023/09/29 10:53:40;;;;;;;6.78;2.10;;;25.10;1.00;;;;;;6223800;28;20132;-78
2023/09/29 10:56:47;;;;;;;5.18;1.80;;;25.30;1.00;;;;;;6199508;28;20054;-81
2023/09/29 10:59:49;;;;;;;6.95;2.10;;;25.10;1.00;;;;;;6170284;28;20055;-80
2023/09/29 11:02:52;;;;;;;7.70;2.28;;;24.80;1.00;;;;;;6222879;28;20062;-81
2023/09/29 11:05:54;;;;;;;4.80;1.67;;;25.00;1.00;;;;;;6197779;28;20613;-77
2023/09/29 11:08:56;;;;;;;6.07;2.00;;;25.40;1.00;;;;;;6222659;28;20148;-75
2023/09/29 11:11:58;;;;;;;5.55;1.92;;;25.10;1.00;;;;;;6197777;28;20058;-73
2023/09/29 11:15:00;;;;;;;7.32;2.00;;;25.40;1.00;;;;;;6216503;28;20143;-73
2023/09/29 11:18:02;;;;;;;6.07;2.13;;;25.70;1.00;;;;;;6199348;28;20146;-74
2023/09/29 11:21:08;;;;;;;5.68;1.95;;;26.20;1.00;;;;;;6222636;28;20136;-74
2023/09/29 11:24:10;;;;;;;5.18;1.98;;;26.70;1.00;;;;;;6174633;28;20085;-81
2023/09/29 11:27:14;;;;;;;5.65;1.90;;;26.80;1.00;;;;;;6222067;28;20049;-79
2023/09/29 11:30:15;;;;;;;4.20;1.80;;;26.50;1.00;;;;;;6171409;28;20495;-80
2023/09/29 11:33:17;;;;;;;5.85;1.70;;;26.50;1.00;;;;;;6198234;28;20073;-79
2023/09/29 11:36:21;;;;;;;5.88;2.00;;;26.50;1.00;;;;;;6222123;28;20046;-80
2023/09/29 11:39:23;;;;;;;6.72;2.15;;;26.80;1.00;;;;;;6198550;28;20050;-84
2023/09/29 11:42:26;;;;;;;9.77;2.10;;;27.10;1.00;;;;;;6220190;28;20421;-76
2023/09/29 11:45:28;;;;;;;9.00;1.83;;;26.10;1.00;;;;;;6201426;28;20699;-81
2023/09/29 11:48:29;;;;;;;9.70;2.40;;;25.10;1.00;;;;;;6220936;28;20050;-77
2023/09/29 11:51:31;;;;;;;10.50;2.22;;;25.00;1.00;;;;;;6198022;28;20054;-76
2023/09/29 11:54:33;;;;;;;8.75;2.17;;;25.40;1.00;;;;;;6221170;28;20054;-77
2023/09/29 11:57:37;;;;;;;9.35;2.10;;;24.40;1.00;;;;;;6198986;28;20050;-77
2023/09/29 12:00:41;;;;;;;7.75;2.00;;;24.60;1.00;;;;;;6219913;28;20058;-76
2023/09/29 12:03:43;;;;;;;7.90;2.20;;;25.50;1.00;;;;;;6197933;28;20069;-76
2023/09/29 12:06:45;;;;;;;8.38;2.22;;;25.10;1.00;;;;;;6195875;28;20061;-79
2023/09/29 12:09:47;;;;;;;6.70;1.90;;;24.20;1.00;;;;;;6236398;28;20052;-79
2023/09/29 12:12:48;;;;;;;7.30;2.10;;;24.70;1.00;;;;;;6195888;28;20049;-80
2023/09/29 12:15:50;;;;;;;6.43;2.17;;;25.40;1.00;;;;;;6212207;28;20516;-80
2023/09/29 12:18:52;;;;;;;6.57;2.00;;;26.10;1.00;;;;;;6214121;28;20058;-78
2023/09/29 12:21:54;;;;;;;14.60;2.42;;;25.50;1.00;;;;;;6204691;28;20057;-80
2023/09/29 12:24:56;;;;;;;11.65;2.55;;;25.70;1.00;;;;;;6201966;28;20054;-79
2023/09/29 12:27:58;;;;;;;4.40;1.50;;;25.70;1.00;;;;;;6207578;28;20062;-80
2023/09/29 12:31:00;;;;;;;6.43;1.90;;;25.50;1.00;;;;;;6198740;28;20050;-79
2023/09/29 12:34:01;;;;;;;6.07;1.63;;;25.50;1.00;;;;;;6220653;28;20080;-78
2023/09/29 12:37:04;;;;;;;8.75;1.90;;;25.90;1.00;;;;;;6197186;28;20088;-80
2023/09/29 12:40:09;;;;;;;6.13;1.67;;;26.10;1.00;;;;;;6221303;28;20050;-79
2023/09/29 12:43:14;;;;;;;7.15;2.25;;;25.70;1.00;;;;;;6202413;28;20054;-79
2023/09/29 12:46:16;;;;;;;5.88;1.90;;;25.70;1.00;;;;;;6208928;28;20072;-76
2023/09/29 12:49:18;;;;;;;6.57;1.85;;;25.50;1.00;;;;;;6197191;28;20054;-75
2023/09/29 12:52:23;;;;;;;7.20;1.80;;;26.10;1.00;;;;;;6219900;28;20065;-76
2023/09/29 12:55:25;;;;;;;6.28;1.95;;;25.90;1.00;;;;;;6194879;28;20605;-75
2023/09/29 12:58:27;;;;;;;6.88;2.10;;;25.90;1.00;;;;;;6205946;28;20501;-75
2023/09/29 13:01:31;;;;;;;4.82;1.70;;;26.10;1.00;;;;;;6218365;28;20057;-75
2023/09/29 13:04:32;;;;;;;6.00;1.90;;;25.90;1.00;;;;;;6194221;28;20042;-79
2023/09/29 13:07:34;;;;;;;6.68;1.85;;;25.80;1.00;;;;;;6194954;28;20417;-81
2023/09/29 13:10:36;;;;;;;6.78;1.83;;;25.90;1.00;;;;;;6222221;28;20128;-81
2023/09/29 13:13:37;;;;;;;6.30;1.88;;;26.00;1.00;;;;;;6206474;28;20057;-82
2023/09/29 13:16:39;;;;;;;10.02;2.25;;;26.10;1.00;;;;;;6198057;28;20066;-87
2023/09/29 13:19:46;;;;;;;7.05;1.80;;;25.80;1.00;;;;;;6235608;28;20232;-83
2023/09/29 13:22:50;;;;;;;6.97;1.83;;;26.10;1.00;;;;;;6218841;28;20101;-82
2023/09/29 13:25:52;;;;;;;7.38;1.67;;;26.10;1.00;;;;;;6197252;28;20057;-91
2023/09/29 13:28:54;;;;;;;9.07;1.73;;;26.10;1.00;;;;;;6205868;28;20050;-80
2023/09/29 13:31:55;;;;;;;6.90;1.70;;;26.40;1.00;;;;;;6234314;28;20050;-76
2023/09/29 13:34:57;;;;;;;4.65;1.88;;;25.80;1.00;;;;;;6196150;28;20046;-74
2023/09/29 13:38:03;;;;;;;5.88;1.55;;;25.30;1.00;;;;;;6219154;28;20065;-76
2023/09/29 13:41:06;;;;;;;6.13;1.75;;;25.50;1.00;;;;;;6195760;28;20057;-75
2023/09/29 13:44:07;;;;;;;6.85;1.80;;;25.80;1.00;;;;;;6216280;28;20046;-76
2023/09/29 13:47:09;;;;;;;7.45;1.75;;;25.50;1.00;;;;;;6233628;28;20520;-84
2023/09/29 13:50:11;;;;;;;6.25;1.60;;;25.50;1.00;;;;;;6194209;28;20587;-74
2023/09/29 13:53:13;;;;;;;6.35;1.60;;;25.60;1.00;;;;;;6195311;28;20058;-76
2023/09/29 13:56:15;;;;;;;5.90;1.80;;;25.50;1.00;;;;;;6194597;28;20184;-75
2023/09/29 13:59:16;;;;;;;6.35;1.80;;;25.40;1.00;;;;;;6212005;28;20050;-75
2023/09/29 14:02:18;;;;;;;5.55;1.50;;;25.40;1.00;;;;;;6195292;28;20065;-74
2023/09/29 14:05:21;;;;;;;4.80;1.40;;;25.40;1.00;;;;;;6203796;28;20046;-74
2023/09/29 14:08:23;;;;;;;6.60;1.48;;;25.20;1.00;;;;;;6216849;28;20087;-77
2023/09/29 14:11:24;;;;;;;7.75;2.35;;;25.10;1.00;;;;;;6217321;28;20141;-77
2023/09/29 14:14:27;;;;;;;11.32;1.67;;;25.50;1.00;;;;;;6167657;28;20154;-77
2023/09/29 14:17:28;;;;;;;8.90;1.77;;;25.50;1.00;;;;;;6216194;28;20058;-78
2023/09/29 14:20:34;;;;;;;8.90;1.80;;;25.20;1.00;;;;;;6193527;28;20081;-76
2023/09/29 14:23:37;;;;;;;20.20;2.25;;;24.90;1.00;;;;;;6193361;28;20501;-78
2023/09/29 14:26:39;;;;;;;11.48;1.90;;;24.70;1.00;;;;;;6173826;28;20506;-75
2023/09/29 14:29:40;;;;;;;5.30;1.27;;;24.90;1.00;;;;;;6205430;28;20065;-74
2023/09/29 14:32:42;;;;;;;7.72;1.67;;;24.50;1.00;;;;;;6182398;28;20057;-75
2023/09/29 14:35:44;;;;;;;6.00;1.52;;;24.30;1.00;;;;;;6194265;28;20054;-74
2023/09/29 14:38:49;;;;;;;6.70;1.40;;;24.00;1.00;;;;;;6170405;28;20055;-75
2023/09/29 14:41:51;;;;;;;14.60;1.50;;;23.90;1.00;;;;;;6217569;28;20057;-74
2023/09/29 14:44:53;;;;;;;5.30;1.45;;;23.40;1.00;;;;;;6189392;28;20070;-74
2023/09/29 14:47:55;;;;;;;4.15;1.20;;;23.20;1.00;;;;;;6194278;28;20414;-77
2023/09/29 14:50:58;;;;;;;8.13;1.48;;;22.80;1.00;;;;;;6218227;28;20057;-75
2023/09/29 14:54:00;;;;;;;8.70;1.67;;;22.50;1.00;;;;;;6194707;28;20648;-75
2023/09/29 14:57:01;;;;;;;6.45;1.33;;;22.40;1.00;;;;;;6217890;28;20527;-75
2023/09/29 15:00:04;;;;;;;5.45;1.42;;;22.50;1.00;;;;;;6193864;28;20866;-75
2023/09/29 15:03:06;;;;;;;6.05;1.30;;;22.60;1.00;;;;;;6217983;28;20132;-75
2023/09/29 15:06:08;;;;;;;7.13;1.42;;;22.50;1.00;;;;;;6194559;28;20058;-76
2023/09/29 15:09:14;;;;;;;6.68;1.38;;;22.30;1.00;;;;;;6170128;28;20055;-75
2023/09/29 15:12:16;;;;;;;6.07;1.27;;;22.20;1.00;;;;;;6216514;28;20054;-74
2023/09/29 15:15:18;;;;;;;8.25;1.50;;;22.30;1.00;;;;;;6190759;28;20152;-76
2023/09/29 15:18:20;;;;;;;7.80;1.40;;;22.20;1.00;;;;;;6169069;28;20047;-74
2023/09/29 15:21:22;;;;;;;6.32;1.58;;;22.40;1.00;;;;;;6216512;28;20050;-75
2023/09/29 15:24:24;;;;;;;4.57;1.25;;;22.10;1.00;;;;;;6195438;28;20054;-75
2023/09/29 15:27:26;;;;;;;6.28;1.60;;;21.80;1.00;;;;;;6219633;28;20192;-75
2023/09/29 15:30:28;;;;;;;8.38;1.50;;;21.40;1.00;;;;;;6198247;28;20050;-76
2023/09/29 15:33:30;;;;;;;5.50;1.30;;;21.00;1.00;;;;;;6174217;28;20062;-76
2023/09/29 15:36:32;;;;;;;9.18;1.48;;;20.90;1.00;;;;;;6221252;28;20553;-75
2023/09/29 15:39:35;;;;;;;11.43;1.77;;;20.90;1.00;;;;;;6198224;28;20182;-75
2023/09/29 15:42:36;;;;;;;10.73;1.70;;;20.80;1.00;;;;;;6218757;28;20053;-74
2023/09/29 15:45:38;;;;;;;8.55;1.88;;;20.70;1.00;;;;;;6194532;28;20181;-75
2023/09/29 15:48:43;;;;;;;7.85;1.45;;;20.60;1.00;;;;;;6221652;28;20137;-75
2023/09/29 15:51:45;;;;;;;16.23;2.15;;;20.50;1.00;;;;;;6197999;28;20054;-73
2023/09/29 15:54:47;;;;;;;9.52;1.80;;;19.70;1.00;;;;;;6221585;28;20049;-74
2023/09/29 15:57:49;;;;;;;8.55;1.75;;;19.50;1.00;;;;;;6199443;28;20127;-74
2023/09/29 16:00:50;;;;;;;6.72;1.27;;;20.00;1.00;;;;;;6221820;28;20054;-74
2023/09/29 16:03:52;;;;;;;8.90;1.73;;;20.20;1.00;;;;;;6197936;28;20054;-75
2023/09/29 16:06:54;;;;;;;18.00;2.28;;;20.00;1.00;;;;;;6221268;28;20058;-74
2023/09/29 16:09:55;;;;;;;10.73;1.80;;;19.20;1.00;;;;;;6197716;28;20707;-75
2023/09/29 16:12:58;;;;;;;10.68;2.05;;;;;;;;;;6214536;28;20062;-75
2023/09/29 16:16:00;;;;;;;13.75;1.88;;;;;;;;;;6197264;28;20046;-74
2023/09/29 16:19:02;;;;;;;8.20;1.45;;;19.70;1.00;;;;;;6221427;28;20104;-74